createdAt,value
2023-02-16T00:45:19.862Z,5.5
2023-02-16T01:05:21.397Z,4.9
2023-02-16T01:25:22.593Z,5.2
2023-02-16T01:45:24.100Z,5.3
2023-02-16T02:05:25.527Z,5.3
2023-02-16T02:15:25.818Z,5.4
2023-02-16T02:25:26.412Z,5.5
2023-02-16T02:45:27.053Z,5.4
2023-02-16T02:55:27.713Z,5.4
2023-02-16T03:15:28.732Z,4.9
2023-02-16T03:25:29.015Z,4.7
2023-02-16T03:45:30.980Z,5
2023-02-16T03:55:31.273Z,5.2
2023-02-16T04:05:31.477Z,5.2
2023-02-16T04:15:32.397Z,5.2
2023-02-16T04:25:33.181Z,5.1
2023-02-16T04:35:33.906Z,5.1
2023-02-16T04:45:34.174Z,5.1
2023-02-16T05:05:35.473Z,5.3
2023-02-16T05:15:35.949Z,5.3
2023-02-16T05:25:37.057Z,5.2
2023-02-16T05:35:38.011Z,5.2
2023-02-16T05:45:38.943Z,5.2
2023-02-16T05:55:39.393Z,5.3
2023-02-16T06:05:40.027Z,5.5
2023-02-16T06:15:40.329Z,5.5
2023-02-16T06:25:40.995Z,5.4
2023-02-16T06:35:42.084Z,5.4
2023-02-16T06:55:43.637Z,5.7
2023-02-16T07:05:44.437Z,5.9
2023-02-16T07:15:45.277Z,6
2023-02-16T07:25:45.783Z,6.1
2023-02-16T07:45:47.601Z,6.1
2023-02-16T08:05:48.352Z,6.3
2023-02-16T08:15:48.913Z,6.7
2023-02-16T08:25:49.833Z,7
2023-02-16T08:35:50.468Z,7.3
2023-02-16T08:45:51.511Z,7.7
2023-02-16T08:55:52.571Z,7.9
2023-02-16T09:05:52.950Z,8
2023-02-16T09:15:53.392Z,8.1
2023-02-16T09:25:53.763Z,8.3
2023-02-16T09:35:54.349Z,8.7
2023-02-16T09:55:55.856Z,9.6
2023-02-16T10:05:56.479Z,9.6
2023-02-16T10:15:57.113Z,9.5
2023-02-16T10:45:58.624Z,9.3
2023-02-16T10:55:58.792Z,9.3
2023-02-16T11:05:58.919Z,9.3
2023-02-16T11:26:00.305Z,9.6
2023-02-16T11:36:00.612Z,9.6
2023-02-16T11:56:02.349Z,9.6
2023-02-16T12:16:05.669Z,9.3
2023-02-16T12:26:04.422Z,9.2
2023-02-16T12:36:04.773Z,9.3
2023-02-16T12:46:05.749Z,9.4
2023-02-16T12:56:05.791Z,9.5
2023-02-16T13:06:06.650Z,9.4
2023-02-16T13:16:12.851Z,9.2
2023-02-16T13:26:07.642Z,9.1
2023-02-16T13:36:08.048Z,9
2023-02-16T13:46:08.480Z,8.9
2023-02-16T13:56:09.327Z,8.9
2023-02-16T14:06:10.020Z,8.9
2023-02-16T14:16:10.429Z,9
2023-02-16T14:26:11.272Z,9
2023-02-16T14:36:12.190Z,9.3
2023-02-16T14:46:13.340Z,9.6
2023-02-16T14:56:13.822Z,9.8
2023-02-16T15:06:14.323Z,10
2023-02-16T15:16:14.702Z,9.8
2023-02-16T15:26:15.017Z,9.8
2023-02-16T15:36:16.000Z,9.8
2023-02-16T15:46:16.785Z,9.9
2023-02-16T15:56:17.724Z,9.8
2023-02-16T16:16:18.935Z,9.8
2023-02-16T16:26:19.393Z,9.7
2023-02-16T16:36:20.452Z,9.6
2023-02-16T16:46:20.811Z,9.6
2023-02-16T16:56:21.920Z,9.6
2023-02-16T17:06:22.177Z,9.7
2023-02-16T17:16:23.160Z,9.8
2023-02-16T17:26:24.069Z,9.9
2023-02-16T17:36:24.660Z,10.1
2023-02-16T17:46:24.936Z,10.4
2023-02-16T17:56:25.219Z,10.5
2023-02-16T18:06:28.134Z,10.7
2023-02-16T18:16:26.844Z,10.9
2023-02-16T18:26:27.525Z,10.8
2023-02-16T18:36:28.602Z,10.9
2023-02-16T18:46:29.456Z,11.1
2023-02-16T19:06:30.325Z,11.1
2023-02-16T19:16:30.982Z,10.9
2023-02-16T19:26:31.953Z,10.7
2023-02-16T19:36:32.118Z,10.3
2023-02-16T19:46:33.118Z,9.8
2023-02-16T20:16:34.849Z,9.5
2023-02-16T20:36:35.945Z,9.8
2023-02-16T20:46:36.762Z,9.9
2023-02-16T21:16:38.015Z,9.7
2023-02-16T21:36:39.084Z,9.2
2023-02-16T21:46:39.793Z,9.1
2023-02-16T21:56:40.248Z,9.1
2023-02-16T22:06:41.024Z,9.1
2023-02-16T22:16:41.534Z,9
2023-02-16T22:26:42.257Z,9.1
2023-02-16T22:36:43.013Z,9.2
2023-02-16T22:46:43.466Z,9.4
2023-02-16T23:06:44.696Z,9.7
2023-02-16T23:16:45.116Z,9.8
2023-02-16T23:26:45.615Z,9.8
2023-02-16T23:36:46.061Z,9.9
2023-02-16T23:46:46.903Z,9.9
